Time;durP1;ratioP1;P1;durP2;ratioP2;P2;SDS_P1;SDS_P2;PMS_P1;PMS_P2;Temp;Humidity;BMP_temperature;BMP_pressure;BME280_temperature;BME280_humidity;BME280_pressure;Samples;Min_cycle;Max_cycle;Signal;HPM_P1;HPM_P2
2024/04/24 00:03:06;;;;;;;;;;;;;;;;;;;;;
2024/04/24 00:06:42;;;;;;;10.20;6.30;;;;;;;5.25;56.24;99802.33;126198;1296;115048;-60
2024/04/24 00:10:37;;;;;;;;;;;;;;;;;;;;;
2024/04/24 00:14:07;;;;;;;11.30;8.00;;;;;;;5.15;56.48;99790.46;125447;1297;130478;-59
2024/04/24 00:17:43;;;;;;;18.30;11.90;;;;;;;5.12;56.64;99779.96;125246;1310;115012;-59
2024/04/24 00:21:45;;;;;;;11.70;8.50;;;;;;;5.10;56.81;99774.35;125261;1306;115343;-60
2024/04/24 00:25:20;;;;;;;17.80;10.60;;;;;;;5.06;57.11;99771.64;124680;1327;114936;-60
2024/04/24 00:28:56;;;;;;;19.10;10.60;;;;;;;5.03;57.03;99766.65;124469;1315;114830;-60
2024/04/24 00:32:51;;;;;;;17.10;8.40;;;;;;;5.01;57.33;99763.70;124829;1303;129830;-60
2024/04/24 00:36:32;;;;;;;17.70;11.90;;;;;;;4.99;57.30;99761.63;124118;1308;115083;-60
2024/04/24 00:40:28;;;;;;;;;;;;;;;;;;;;;
2024/04/24 00:48:27;;;;;;;;;;;;;;;;;;;;;
2024/04/24 00:52:12;;;;;;;14.90;8.90;;;;;;;4.97;57.56;99746.34;128894;1271;128949;-60
2024/04/24 00:56:02;;;;;;;;;;;;;;;;;;;;;
2024/04/24 01:00:06;;;;;;;16.00;8.90;;;;;;;4.92;57.97;99746.16;127534;1286;114970;-59
2024/04/24 01:03:47;;;;;;;;;;;;;;;;;;;;;
2024/04/24 01:07:42;;;;;;;;;;;;;;;;;;;;;
2024/04/24 01:11:26;;;;;;;17.00;11.70;;;;;;;4.81;58.35;99737.31;126089;1296;114882;-60
2024/04/24 01:15:14;;;;;;;;;;;;;;;;;;;;;
2024/04/24 01:19:02;;;;;;;;;;;;;;;;;;;;;
2024/04/24 01:27:24;;;;;;;17.40;10.90;;;;;;;4.72;58.46;99729.66;126435;1292;635742;-60
2024/04/24 01:31:03;;;;;;;17.50;10.10;;;;;;;4.71;58.61;99724.77;129120;1271;128706;-60
2024/04/24 01:34:51;;;;;;;14.90;8.70;;;;;;;4.69;58.71;99720.23;128143;1286;114857;-60
2024/04/24 01:38:38;;;;;;;;;;;;;;;;;;;;;
2024/04/24 01:42:36;;;;;;;;;;;;;;;;;;;;;
2024/04/24 01:46:38;;;;;;;;;;;;;;;;;;;;;
2024/04/24 01:50:22;;;;;;;;;;;;;;;;;;;;;
2024/04/24 01:54:28;;;;;;;;;;;;;;;;;;;;;
2024/04/24 01:58:51;;;;;;;;;;;;;;;;;;;;;
2024/04/24 02:01:52;;;;;;;19.00;11.30;;;;;;;4.56;58.93;99691.84;128991;1276;114745;-61
2024/04/24 02:05:45;;;;;;;18.00;11.20;;;;;;;4.55;59.11;99687.27;128499;1276;114881;-60
2024/04/24 02:09:39;;;;;;;20.30;11.00;;;;;;;4.55;59.22;99683.02;123614;1286;114898;-60
2024/04/24 02:13:48;;;;;;;19.00;10.80;;;;;;;4.54;59.20;99676.72;126375;1296;115034;-59
2024/04/24 02:17:21;;;;;;;18.30;10.60;;;;;;;4.51;59.13;99669.73;126559;1300;114812;-60
2024/04/24 02:20:55;;;;;;;18.60;11.40;;;;;;;4.50;59.28;99665.35;126162;1293;129078;-60
2024/04/24 02:28:13;;;;;;;;;;;;;;;;;;;;;
2024/04/24 02:31:54;;;;;;;18.90;11.60;;;;;;;4.50;59.47;99650.34;127580;1303;115075;-60
2024/04/24 02:35:28;;;;;;;16.30;10.20;;;;;;;4.48;59.48;99644.71;127102;1289;114968;-60
2024/04/24 02:39:31;;;;;;;19.10;10.60;;;;;;;4.46;59.64;99644.12;127458;1283;128713;-59
2024/04/24 02:43:29;;;;;;;20.70;10.60;;;;;;;4.44;59.70;99638.86;126859;1295;114878;-60
2024/04/24 02:47:05;;;;;;;19.50;12.10;;;;;;;4.40;59.77;99640.59;127751;1297;114905;-60
2024/04/24 02:50:48;;;;;;;18.80;11.30;;;;;;;4.38;59.95;99637.27;127414;1289;114964;-59
2024/04/24 02:54:36;;;;;;;18.80;11.50;;;;;;;4.38;59.94;99634.46;127561;1301;114923;-60
2024/04/24 02:58:35;;;;;;;;;;;;;;;;;;;;;
2024/04/24 03:02:28;;;;;;;18.10;12.10;;;;;;;4.31;60.04;99622.69;128802;1272;129500;-59
2024/04/24 03:06:22;;;;;;;18.90;12.60;;;;;;;4.27;60.36;99620.16;129254;1270;114853;-61
2024/04/24 03:10:03;;;;;;;18.90;11.60;;;;;;;4.22;60.60;99620.69;128309;1272;115358;-60
2024/04/24 03:13:34;;;;;;;;;;;;;;;;;;;;;
2024/04/24 03:16:55;;;;;;;;;;;;;;;;;;;;;
2024/04/24 03:20:45;;;;;;;20.60;14.10;;;;;;;4.05;60.60;99609.26;127786;1280;114905;-60
2024/04/24 03:24:03;;;;;;;20.10;13.10;;;;;;;3.98;60.72;99605.80;127587;1294;128994;-61
2024/04/24 03:32:00;;;;;;;;;;;;;;;;;;;;;
2024/04/24 03:35:37;;;;;;;21.60;12.70;;;;;;;3.66;61.13;99596.05;127531;1303;114954;-60
2024/04/24 03:39:20;;;;;;;;;;;;;;;;;;;;;
2024/04/24 03:42:56;;;;;;;22.60;13.00;;;;;;;3.44;61.29;99591.99;127120;1289;129767;-61
2024/04/24 03:46:36;;;;;;;18.20;12.30;;;;;;;3.34;61.61;99589.48;127505;1299;115011;-60
2024/04/24 03:50:16;;;;;;;20.00;13.90;;;;;;;3.26;61.71;99586.73;127753;1292;114857;-59
2024/04/24 03:54:04;;;;;;;;;;;;;;;;;;;;;
2024/04/24 03:57:51;;;;;;;23.70;14.10;;;;;;;3.12;61.96;99585.04;128186;1273;115116;-59
2024/04/24 04:01:12;;;;;;;22.30;14.60;;;;;;;3.07;62.37;99584.84;128607;1286;128824;-60
2024/04/24 04:04:25;;;;;;;20.70;12.50;;;;;;;3.02;62.47;99584.45;129070;1286;115314;-59
2024/04/24 04:07:58;;;;;;;20.50;13.00;;;;;;;3.01;62.41;99582.02;129058;1283;114805;-59
2024/04/24 04:11:35;;;;;;;;;;;;;;;;;;;;;
2024/04/24 04:15:20;;;;;;;20.80;13.10;;;;;;;3.01;62.89;99584.83;129071;1287;114837;-59
2024/04/24 04:18:53;;;;;;;23.00;12.50;;;;;;;3.05;62.94;99582.79;129114;1287;128825;-59
2024/04/24 04:22:54;;;;;;;;;;;;;;;;;;;;;
2024/04/24 04:26:43;;;;;;;20.40;12.70;;;;;;;3.24;63.45;99588.91;128696;1275;114863;-59
2024/04/24 04:30:11;;;;;;;21.60;11.90;;;;;;;3.37;63.59;99582.67;128734;1271;114929;-61
2024/04/24 04:33:31;;;;;;;;;;;;;;;;;;;;;
2024/04/24 04:36:49;;;;;;;24.80;14.10;;;;;;;3.64;63.59;99566.98;128434;1274;128216;-59
2024/04/24 04:40:17;;;;;;;20.50;13.00;;;;;;;3.78;63.72;99557.35;128460;1289;114817;-60
2024/04/24 04:43:48;;;;;;;21.50;14.40;;;;;;;3.89;63.65;99555.39;127906;1293;115254;-59
2024/04/24 04:47:24;;;;;;;;;;;;;;;;;;;;;
2024/04/24 04:51:09;;;;;;;;;;;;;;;;;;;;;
2024/04/24 04:54:38;;;;;;;17.50;12.30;;;;;;;4.41;63.52;99549.35;128565;1294;127928;-60
2024/04/24 04:58:06;;;;;;;20.90;13.50;;;;;;;4.58;63.37;99556.15;127833;1294;114975;-59
2024/04/24 05:01:31;;;;;;;19.10;13.70;;;;;;;4.75;63.16;99550.20;128178;1294;115251;-60
2024/04/24 05:05:08;;;;;;;21.40;13.30;;;;;;;4.92;63.01;99546.05;129066;1288;114867;-60
2024/04/24 05:08:42;;;;;;;18.10;12.50;;;;;;;5.12;62.74;99541.20;128952;1288;114922;-59
2024/04/24 05:12:30;;;;;;;21.40;12.20;;;;;;;5.26;62.24;99537.79;128928;1288;128918;-61
2024/04/24 05:16:37;;;;;;;20.20;12.60;;;;;;;5.43;62.07;99538.91;128212;1295;115058;-59
2024/04/24 05:20:28;;;;;;;21.10;12.20;;;;;;;5.61;61.75;99534.09;127849;1300;114875;-60
2024/04/24 05:24:37;;;;;;;19.40;12.40;;;;;;;5.77;61.65;99533.57;128063;1280;114843;-59
2024/04/24 05:32:22;;;;;;;18.80;11.00;;;;;;;6.17;61.30;99528.38;128066;1290;128878;-60
2024/04/24 05:36:17;;;;;;;17.90;11.80;;;;;;;6.38;60.88;99515.95;127766;1297;114958;-60
2024/04/24 05:40:04;;;;;;;16.10;10.60;;;;;;;6.63;60.53;99518.34;128058;1279;114935;-60
2024/04/24 05:43:23;;;;;;;19.90;13.10;;;;;;;6.90;60.22;99512.14;128151;1279;114706;-60
2024/04/24 05:47:06;;;;;;;31.40;20.90;;;;;;;7.07;59.47;99514.71;128207;1297;116213;-60
2024/04/24 05:50:58;;;;;;;20.30;13.10;;;;;;;7.18;59.32;99516.69;127986;1293;128676;-60
2024/04/24 05:55:01;;;;;;;;;;;;;;;;;;;;;
2024/04/24 05:58:39;;;;;;;16.90;11.30;;;;;;;7.69;59.31;99509.55;127175;1288;114920;-60
2024/04/24 06:02:38;;;;;;;19.50;11.90;;;;;;;7.91;58.42;99512.36;127527;1286;114834;-61
2024/04/24 06:06:32;;;;;;;16.40;10.50;;;;;;;8.17;57.79;99502.32;128091;1280;114945;-59
2024/04/24 06:09:58;;;;;;;14.60;9.80;;;;;;;8.49;58.18;99498.13;127491;1282;128979;-62
2024/04/24 06:13:37;;;;;;;16.90;11.10;;;;;;;8.91;57.73;99493.21;127550;1294;114894;-60
2024/04/24 06:17:13;;;;;;;17.90;11.50;;;;;;;9.38;57.31;99490.21;127568;1284;114808;-61
2024/04/24 06:21:06;;;;;;;;;;;;;;;;;;;;;
2024/04/24 06:25:00;;;;;;;17.90;11.10;;;;;;;10.08;56.28;99486.61;126577;1308;114824;-60
2024/04/24 06:28:41;;;;;;;15.80;10.60;;;;;;;10.29;55.73;99483.95;126551;1291;128815;-59
2024/04/24 06:32:39;;;;;;;;;;;;;;;;;;;;;
2024/04/24 06:36:50;;;;;;;14.70;11.90;;;;;;;10.75;55.00;99485.77;127210;1302;114945;-61
2024/04/24 06:40:41;;;;;;;16.50;10.40;;;;;;;10.96;54.03;99484.40;126352;1292;114978;-60
2024/04/24 06:44:33;;;;;;;17.00;11.30;;;;;;;11.08;53.46;99479.55;126351;1310;114942;-60
2024/04/24 06:48:13;;;;;;;16.50;10.70;;;;;;;11.24;53.23;99472.95;127013;1283;130085;-60
2024/04/24 06:52:07;;;;;;;13.70;11.30;;;;;;;11.42;52.88;99468.61;127091;1289;114910;-61
2024/04/24 06:55:47;;;;;;;15.40;10.20;;;;;;;11.62;53.08;99467.23;126996;1285;115218;-60
2024/04/24 06:59:09;;;;;;;;;;;;;;;;;;;;;
2024/04/24 07:03:04;;;;;;;14.90;10.30;;;;;;;11.92;51.69;99461.13;127731;1283;115653;-60
2024/04/24 07:07:05;;;;;;;13.70;10.10;;;;;;;12.10;51.23;99447.89;127390;1297;129540;-60
2024/04/24 07:10:45;;;;;;;;;;;;;;;;;;;;;
2024/04/24 07:14:24;;;;;;;16.20;11.40;;;;;;;12.66;50.60;99433.08;128202;1279;114844;-60
2024/04/24 07:18:04;;;;;;;;;;;;;;;;;;;;;
2024/04/24 07:21:49;;;;;;;14.80;11.10;;;;;;;13.32;49.90;99428.95;128068;1295;114869;-60
2024/04/24 07:25:32;;;;;;;14.50;10.60;;;;;;;13.70;49.59;99424.48;128109;1294;127826;-60
2024/04/24 07:29:22;;;;;;;13.50;10.70;;;;;;;13.94;48.84;99421.60;127921;1272;115200;-61
2024/04/24 07:33:06;;;;;;;17.40;11.80;;;;;;;14.05;48.50;99424.34;127640;1283;114890;-61
2024/04/24 07:36:41;;;;;;;15.00;11.30;;;;;;;14.16;48.34;99424.88;127146;1283;114853;-62
2024/04/24 07:40:17;;;;;;;14.10;10.40;;;;;;;14.27;47.89;99425.15;127729;1301;114744;-60
2024/04/24 07:44:15;;;;;;;;;;;;;;;;;;;;;
2024/04/24 07:48:00;;;;;;;12.90;9.80;;;;;;;14.30;47.31;99424.56;127080;1286;114961;-59
2024/04/24 07:51:44;;;;;;;12.90;10.10;;;;;;;14.37;47.03;99418.27;126449;1307;114910;-60
2024/04/24 07:55:25;;;;;;;;;;;;;;;14.31;46.62;99416.34;126549;1307;114985;-61
2024/04/24 07:58:57;;;;;;;13.40;9.90;;;;;;;14.29;46.65;99412.04;126481;1294;115455;-63
2024/04/24 08:02:37;;;;;;;13.20;10.90;;;;;;;14.42;46.58;99411.03;126709;1290;129082;-61
2024/04/24 08:06:32;;;;;;;15.00;11.40;;;;;;;14.54;46.19;99406.08;126681;1304;114896;-60
2024/04/24 08:10:15;;;;;;;13.40;10.10;;;;;;;14.70;45.87;99401.44;126821;1304;115335;-60
2024/04/24 08:13:51;;;;;;;12.70;9.40;;;;;;;14.88;45.30;99399.08;126976;1304;114969;-60
2024/04/24 08:17:27;;;;;;;;;;;;;;;15.07;45.23;99396.11;127196;1297;114862;-60
2024/04/24 08:21:34;;;;;;;10.60;8.20;;;;;;;15.35;44.62;99394.45;127187;1301;129106;-60
2024/04/24 08:25:21;;;;;;;11.80;9.90;;;;;;;15.67;44.46;99387.50;127868;1296;114884;-60
2024/04/24 08:29:09;;;;;;;11.70;9.50;;;;;;;16.04;43.85;99393.52;128473;1268;116094;-61
2024/04/24 08:32:56;;;;;;;11.10;9.30;;;;;;;16.33;43.31;99389.57;129140;1281;114921;-61
2024/04/24 08:36:13;;;;;;;15.10;10.70;;;;;;;16.44;41.58;99386.99;129397;1283;114912;-60
2024/04/24 08:40:06;;;;;;;;;;;;;;;;;;;;;
2024/04/24 08:44:03;;;;;;;11.60;10.10;;;;;;;16.46;42.07;99387.31;128813;1291;114759;-61
2024/04/24 08:48:05;;;;;;;12.70;10.30;;;;;;;16.70;41.50;99382.70;128813;1267;114948;-61
2024/04/24 08:51:29;;;;;;;11.80;8.80;;;;;;;16.74;41.34;99384.35;128750;1268;114769;-59
2024/04/24 08:55:23;;;;;;;13.40;10.00;;;;;;;16.85;41.30;99383.15;128848;1290;114845;-61
2024/04/24 08:59:11;;;;;;;11.30;9.10;;;;;;;16.91;40.87;99379.20;128237;1295;128016;-62
2024/04/24 09:03:05;;;;;;;11.30;9.40;;;;;;;17.05;40.98;99372.48;127386;1303;114956;-60
2024/04/24 09:06:42;;;;;;;10.40;8.80;;;;;;;17.19;40.54;99371.08;127481;1303;114776;-61
2024/04/24 09:10:08;;;;;;;12.30;10.40;;;;;;;17.29;40.19;99366.73;127271;1286;115166;-61
2024/04/24 09:13:56;;;;;;;12.20;9.70;;;;;;;17.40;40.23;99360.83;127434;1303;114885;-60
2024/04/24 09:17:35;;;;;;;;;;;;;;;;;;;;;
2024/04/24 09:21:26;;;;;;;13.00;10.20;;;;;;;17.40;39.62;99353.08;127710;1281;114952;-60
2024/04/24 09:24:50;;;;;;;;;;;;;;;;;;;;;
2024/04/24 09:28:53;;;;;;;12.50;9.80;;;;;;;17.53;38.69;99346.48;127242;1303;114832;-60
2024/04/24 09:32:30;;;;;;;13.70;10.50;;;;;;;17.49;39.15;99344.86;126964;1305;114844;-60
2024/04/24 09:36:30;;;;;;;14.10;11.30;;;;;;;17.44;38.86;99349.63;127343;1282;128619;-62
2024/04/24 09:40:34;;;;;;;12.30;10.90;;;;;;;17.38;38.79;99349.27;128415;1292;114850;-62
2024/04/24 09:44:27;;;;;;;11.40;9.50;;;;;;;17.25;38.19;99342.35;127549;1286;114927;-60
2024/04/24 09:48:15;;;;;;;12.40;9.00;;;;;;;17.06;38.39;99340.73;126854;1307;114962;-61
2024/04/24 09:52:01;;;;;;;11.20;9.70;;;;;;;16.91;38.39;99341.52;126686;1289;115196;-59
2024/04/24 09:55:42;;;;;;;12.10;9.60;;;;;;;16.82;38.48;99337.77;126699;1287;128714;-60
2024/04/24 09:59:19;;;;;;;13.20;10.40;;;;;;;16.66;38.12;99337.66;126294;1306;114752;-60
2024/04/24 10:02:53;;;;;;;12.00;10.40;;;;;;;16.62;38.49;99333.80;126661;1306;116505;-61
2024/04/24 10:06:43;;;;;;;12.10;10.50;;;;;;;16.58;38.50;99328.89;126670;1283;114773;-61
2024/04/24 10:10:17;;;;;;;11.50;10.10;;;;;;;16.44;38.29;99333.61;127468;1301;114781;-60
2024/04/24 10:14:10;;;;;;;;;;;;;;;;;;;;;
2024/04/24 10:17:25;;;;;;;12.50;10.20;;;;;;;15.87;39.25;99325.62;126760;1289;114913;-60
2024/04/24 10:21:13;;;;;;;12.80;9.20;;;;;;;15.76;39.16;99324.98;127469;1287;114949;-59
2024/04/24 10:24:50;;;;;;;13.80;10.90;;;;;;;15.59;39.22;99318.12;128107;1279;114852;-62
2024/04/24 10:28:20;;;;;;;11.70;9.10;;;;;;;15.45;39.37;99320.81;128192;1279;115032;-61
2024/04/24 10:31:49;;;;;;;;;;;;;;;;;;;;;
2024/04/24 10:35:30;;;;;;;;;;;;;;;;;;;;;
2024/04/24 10:39:15;;;;;;;13.00;9.60;;;;;;;15.24;39.03;99320.02;128647;1291;114880;-61
2024/04/24 10:43:00;;;;;;;14.70;8.80;;;;;;;15.09;38.89;99320.58;128663;1291;114871;-62
2024/04/24 10:46:21;;;;;;;12.90;11.00;;;;;;;15.00;39.22;99319.29;128583;1273;114900;-61
2024/04/24 10:49:52;;;;;;;12.80;10.20;;;;;;;14.95;38.66;99316.31;128995;1288;128476;-59
2024/04/24 10:53:39;;;;;;;11.90;8.60;;;;;;;14.85;39.16;99318.59;128825;1288;114862;-61
2024/04/24 10:57:27;;;;;;;12.60;9.20;;;;;;;14.80;38.70;99313.24;129129;1264;115035;-61
2024/04/24 11:01:16;;;;;;;13.50;10.30;;;;;;;14.74;39.15;99312.47;129300;1282;114909;-60
2024/04/24 11:04:53;;;;;;;;;;;;;;;;;;;;;
2024/04/24 11:08:31;;;;;;;;;;;;;;;;;;;;;
2024/04/24 11:12:03;;;;;;;;;;;;;;;;;;;;;
2024/04/24 11:15:43;;;;;;;;;;;;;;;;;;;;;
2024/04/24 11:18:50;;;;;;;10.40;8.30;;;;;;;15.47;38.97;99300.77;129737;1270;114853;-61
2024/04/24 11:21:53;;;;;;;10.10;8.70;;;;;;;15.54;38.75;99297.17;129672;1260;114904;-61
2024/04/24 11:25:53;;;;;;;11.60;8.60;;;;;;;15.59;38.78;99289.36;129381;1274;129286;-61
2024/04/24 11:29:56;;;;;;;8.30;6.80;;;;;;;15.75;38.59;99291.20;129152;1275;114991;-61
2024/04/24 11:33:34;;;;;;;11.00;8.50;;;;;;;16.02;38.48;99293.36;128678;1277;114817;-61
2024/04/24 11:37:33;;;;;;;;;;;;;;;;;;;;;
2024/04/24 11:42:00;;;;;;;10.10;7.50;;;;;;;16.14;39.85;99291.42;126804;1302;116484;-63
2024/04/24 11:44:59;;;;;;;7.30;6.00;;;;;;;16.33;39.61;99290.05;126080;1293;129918;-60
2024/04/24 11:48:38;;;;;;;8.50;5.90;;;;;;;16.49;39.57;99285.59;126185;1294;114941;-61
2024/04/24 11:52:25;;;;;;;7.20;5.10;;;;;;;16.70;39.13;99281.72;126382;1308;114800;-61
2024/04/24 11:56:12;;;;;;;;;;;;;;;;;;;;;
2024/04/24 11:59:42;;;;;;;8.00;6.80;;;;;;;17.28;38.85;99272.28;124925;1299;115000;-61
2024/04/24 12:03:45;;;;;;;7.50;6.50;;;;;;;17.41;38.70;99265.80;125293;1321;128501;-59
2024/04/24 12:07:28;;;;;;;;;;;;;;;;;;;;;
2024/04/24 12:11:15;;;;;;;11.10;8.50;;;;;;;17.43;37.52;99260.53;125790;1314;114901;-62
2024/04/24 12:15:00;;;;;;;9.70;7.00;;;;;;;17.19;37.46;99258.64;125407;1300;114912;-60
2024/04/24 12:18:16;;;;;;;;;;;;;;;;;;;;;
2024/04/24 12:21:37;;;;;;;;;;;;;;;16.95;37.63;99256.37;126109;1292;129713;-60
2024/04/24 12:25:10;;;;;;;;;;;;;;;;;;;;;
2024/04/24 12:29:00;;;;;;;9.30;7.50;;;;;;;16.53;36.97;99254.55;126418;1309;114896;-61
2024/04/24 12:32:36;;;;;;;9.20;7.80;;;;;;;16.27;37.26;99250.98;126950;1297;114959;-60
2024/04/24 12:36:23;;;;;;;9.30;7.60;;;;;;;16.18;37.73;99251.41;127800;1274;115013;-60
2024/04/24 12:40:16;;;;;;;;;;;;;;;;;;;;;
2024/04/24 12:44:08;;;;;;;11.10;9.00;;;;;;;16.22;37.56;99240.61;127895;1297;115380;-60
2024/04/24 12:47:33;;;;;;;9.00;6.70;;;;;;;16.22;37.54;99241.30;128281;1290;114955;-61
2024/04/24 12:51:06;;;;;;;;;;;;;;;;;;;;;
2024/04/24 12:54:48;;;;;;;9.90;7.60;;;;;;;16.18;37.44;99238.98;129298;1276;115243;-61
2024/04/24 12:58:41;;;;;;;9.00;7.40;;;;;;;16.25;37.73;99237.29;129436;1281;129018;-61
2024/04/24 13:02:32;;;;;;;9.90;7.80;;;;;;;16.31;37.53;99238.52;129559;1281;114729;-61
2024/04/24 13:06:41;;;;;;;12.90;8.70;;;;;;;16.30;37.40;99232.52;128735;1284;114930;-60
2024/04/24 13:10:09;;;;;;;8.80;7.30;;;;;;;16.28;37.43;99232.70;128804;1291;114852;-59
2024/04/24 13:14:17;;;;;;;9.80;8.20;;;;;;;16.17;37.28;99234.23;128708;1270;116538;-60
2024/04/24 13:18:03;;;;;;;9.30;7.80;;;;;;;16.13;37.55;99231.41;128685;1291;127897;-60
2024/04/24 13:21:53;;;;;;;9.10;7.50;;;;;;;16.10;37.22;99236.51;128534;1270;114877;-62
2024/04/24 13:25:36;;;;;;;9.40;7.60;;;;;;;15.87;36.59;99230.73;128550;1282;114917;-60
2024/04/24 13:29:15;;;;;;;9.70;8.50;;;;;;;15.70;37.40;99229.52;128646;1285;114942;-61
2024/04/24 13:32:48;;;;;;;9.50;7.00;;;;;;;15.59;37.62;99221.98;128739;1291;115184;-61
2024/04/24 13:36:31;;;;;;;10.00;8.90;;;;;;;15.66;37.91;99221.05;128847;1288;128807;-60
2024/04/24 13:39:49;;;;;;;10.20;8.70;;;;;;;15.64;37.83;99217.62;128726;1292;114761;-60
2024/04/24 13:42:58;;;;;;;12.70;8.60;;;;;;;15.50;37.91;99216.14;128834;1270;114829;-60
2024/04/24 13:46:37;;;;;;;10.10;8.50;;;;;;;15.42;38.19;99211.84;129371;1269;114817;-60
2024/04/24 13:50:18;;;;;;;12.90;9.70;;;;;;;15.39;38.71;99211.88;129911;1260;114988;-61
2024/04/24 13:53:49;;;;;;;11.60;8.70;;;;;;;15.37;38.53;99214.08;129596;1260;128631;-60
2024/04/24 13:57:38;;;;;;;9.60;7.70;;;;;;;15.33;38.96;99215.09;128771;1273;114930;-60
2024/04/24 14:01:49;;;;;;;9.80;8.60;;;;;;;15.42;39.00;99212.73;128250;1273;114936;-60
2024/04/24 14:05:10;;;;;;;;;;;;;;;15.51;39.23;99212.28;127727;1299;114927;-60
2024/04/24 14:08:52;;;;;;;11.20;8.50;;;;;;;15.51;39.19;99210.68;127795;1299;115030;-63
2024/04/24 14:12:44;;;;;;;;;;;;;;;;;;;;;
2024/04/24 14:16:33;;;;;;;8.90;7.70;;;;;;;15.38;39.09;99209.48;127596;1296;114958;-61
2024/04/24 14:20:36;;;;;;;9.50;8.10;;;;;;;15.33;38.91;99207.86;127695;1282;114966;-61
2024/04/24 14:24:12;;;;;;;9.60;7.20;;;;;;;15.19;38.80;99207.34;127485;1297;114876;-60
2024/04/24 14:27:46;;;;;;;9.40;7.50;;;;;;;15.08;39.29;99208.84;127843;1301;114872;-60
2024/04/24 14:31:24;;;;;;;11.10;8.80;;;;;;;14.97;39.18;99203.63;127724;1300;130055;-61
2024/04/24 14:35:12;;;;;;;9.40;7.40;;;;;;;14.93;39.23;99200.93;128163;1288;114889;-60
2024/04/24 14:38:53;;;;;;;;;;;;;;;;;;;;;
2024/04/24 14:42:48;;;;;;;;;;;;;;;;;;;;;
2024/04/24 14:46:23;;;;;;;;;;;;;;;;;;;;;
2024/04/24 14:50:10;;;;;;;;;;;;;;;;;;;;;
2024/04/24 14:54:02;;;;;;;10.10;7.80;;;;;;;14.57;39.09;99186.96;128995;1277;114992;-60
2024/04/24 14:57:48;;;;;;;8.80;6.80;;;;;;;14.46;39.46;99185.73;128161;1273;114850;-61
2024/04/24 15:01:33;;;;;;;;;;;;;;;;;;;;;
2024/04/24 15:05:22;;;;;;;7.90;5.60;;;;;;;14.41;40.10;99182.34;127962;1296;114834;-60
2024/04/24 15:12:35;;;;;;;8.90;7.20;;;;;;;14.22;39.88;99186.72;123972;1277;5727829;-60
2024/04/24 15:16:06;;;;;;;;;;;;;;;;;;;;;
2024/04/24 15:19:50;;;;;;;;;;;;;;;;;;;;;
2024/04/24 15:23:54;;;;;;;;;;;;;;;;;;;;;
2024/04/24 15:27:38;;;;;;;8.10;6.40;;;;;;;13.75;40.29;99183.64;127325;1299;114972;-60
2024/04/24 15:30:52;;;;;;;9.40;7.40;;;;;;;13.69;40.26;99177.83;127711;1283;128045;-60
2024/04/24 15:34:33;;;;;;;;;;;;;;;;;;;;;
2024/04/24 15:38:03;;;;;;;9.30;6.40;;;;;;;13.40;40.18;99183.59;128590;1270;114912;-61
2024/04/24 15:41:26;;;;;;;7.00;5.70;;;;;;;13.23;40.37;99183.41;128479;1279;114849;-60
2024/04/24 15:45:13;;;;;;;7.60;6.10;;;;;;;13.13;40.68;99182.09;129145;1286;115257;-60
2024/04/24 15:49:06;;;;;;;;;;;;;;;;;;;;;
2024/04/24 15:52:38;;;;;;;4.60;3.90;;;;;;;13.04;40.26;99177.20;127734;1285;114834;-60
2024/04/24 15:56:42;;;;;;;4.10;3.40;;;;;;;12.92;39.85;99170.73;127703;1276;114853;-62
2024/04/24 16:00:27;;;;;;;4.50;3.90;;;;;;;12.78;40.31;99168.45;127308;1278;114834;-60
2024/04/24 16:04:21;;;;;;;6.60;4.80;;;;;;;12.67;40.06;99164.81;127272;1303;114935;-61
2024/04/24 16:07:50;;;;;;;8.80;5.40;;;;;;;12.55;40.13;99160.02;126917;1286;130302;-61
2024/04/24 16:11:19;;;;;;;5.30;4.80;;;;;;;12.45;40.61;99165.00;127301;1286;114907;-61
2024/04/24 16:15:03;;;;;;;5.50;4.80;;;;;;;12.38;40.53;99168.27;127094;1287;114854;-61
2024/04/24 16:18:34;;;;;;;6.30;4.30;;;;;;;12.29;40.61;99167.68;127343;1294;114696;-61
2024/04/24 16:22:36;;;;;;;4.70;4.20;;;;;;;12.19;40.33;99169.12;126515;1293;114898;-61
2024/04/24 16:26:25;;;;;;;6.60;5.20;;;;;;;12.06;40.78;99166.88;126149;1308;129973;-60
2024/04/24 16:29:55;;;;;;;5.10;4.50;;;;;;;12.00;40.97;99168.38;126198;1299;115006;-61
2024/04/24 16:33:16;;;;;;;6.50;4.70;;;;;;;11.91;41.17;99161.29;126506;1308;114953;-62
2024/04/24 16:37:11;;;;;;;;;;;;;;;;;;;;;
2024/04/24 16:41:09;;;;;;;5.80;4.90;;;;;;;11.76;41.35;99160.42;127161;1286;114882;-61
2024/04/24 16:44:43;;;;;;;7.50;5.30;;;;;;;11.65;41.40;99163.13;126502;1311;130790;-62
2024/04/24 16:48:38;;;;;;;9.30;6.50;;;;;;;11.48;41.54;99162.25;126118;1289;114985;-61
2024/04/24 16:52:13;;;;;;;7.30;5.10;;;;;;;11.32;42.20;99165.02;125362;1302;114801;-61
2024/04/24 16:55:53;;;;;;;10.50;8.70;;;;;;;11.10;43.26;99163.46;125308;1317;115373;-61
2024/04/24 16:59:55;;;;;;;10.60;8.40;;;;;;;10.88;44.03;99168.92;126110;1292;115099;-62
2024/04/24 17:03:42;;;;;;;;;;;;;;;;;;;;;
2024/04/24 17:07:03;;;;;;;16.50;12.30;;;;;;;10.56;44.85;99172.92;125638;1316;114957;-62
2024/04/24 17:10:44;;;;;;;;;;;;;;;10.45;45.13;99174.14;125769;1298;115067;-62
2024/04/24 17:14:31;;;;;;;;;;;;;;;;;;;;;
2024/04/24 17:18:25;;;;;;;14.90;11.00;;;;;;;10.24;46.12;99179.99;125392;1307;114940;-61
2024/04/24 17:22:27;;;;;;;11.50;9.40;;;;;;;10.12;46.51;99181.83;125734;1309;129669;-61
2024/04/24 17:26:18;;;;;;;;;;;;;;;;;;;;;
2024/04/24 17:30:05;;;;;;;20.10;14.70;;;;;;;9.96;47.40;99188.26;126579;1300;114931;-61
2024/04/24 17:34:03;;;;;;;14.40;10.30;;;;;;;9.81;47.54;99191.30;126858;1305;114886;-61
2024/04/24 17:37:33;;;;;;;;;;;;;;;;;;;;;
2024/04/24 17:41:01;;;;;;;;;;;;;;;;;;;;;
2024/04/24 17:44:52;;;;;;;;;;;;;;;;;;;;;
2024/04/24 17:48:47;;;;;;;;;;;;;;;;;;;;;
2024/04/24 17:52:39;;;;;;;;;;;;;;;;;;;;;
2024/04/24 17:56:29;;;;;;;18.80;13.80;;;;;;;9.13;49.36;99198.42;126826;1285;114945;-62
2024/04/24 17:59:39;;;;;;;14.30;11.40;;;;;;;9.04;49.91;99195.41;127259;1283;129612;-61
2024/04/24 18:03:19;;;;;;;19.80;14.10;;;;;;;8.93;50.38;99201.58;128229;1277;114888;-62
2024/04/24 18:06:32;;;;;;;21.40;15.00;;;;;;;8.80;50.54;99202.70;128254;1292;115028;-61
2024/04/24 18:09:43;;;;;;;18.20;13.70;;;;;;;8.71;50.96;99206.07;128359;1295;115024;-62
2024/04/24 18:13:03;;;;;;;;;;;;;;;;;;;;;
2024/04/24 18:16:15;;;;;;;19.30;13.00;;;;;;;8.56;51.37;99217.29;128788;1290;128741;-60
2024/04/24 18:19:46;;;;;;;;;;;;;;;8.48;51.95;99221.32;128760;1281;114838;-59
2024/04/24 18:23:27;;;;;;;9.60;6.50;;;;;;;8.36;52.30;99225.00;128475;1271;114852;-60
2024/04/24 18:27:15;;;;;;;39.40;26.90;;;;;;;8.25;52.84;99225.44;128097;1289;115201;-62
2024/04/24 18:31:02;;;;;;;19.40;13.00;;;;;;;8.16;53.38;99233.98;127899;1279;114938;-60
2024/04/24 18:34:48;;;;;;;53.20;34.00;;;;;;;8.05;53.89;99237.77;126999;1288;128969;-60
2024/04/24 18:38:19;;;;;;;;;;;;;;;;;;;;;
2024/04/24 18:41:57;;;;;;;38.00;26.50;;;;;;;7.87;54.75;99237.52;126138;1311;115001;-61
2024/04/24 18:45:19;;;;;;;;;;;;;;;;;;;;;
2024/04/24 18:49:13;;;;;;;;;;;;;;;;;;;;;
2024/04/24 18:53:08;;;;;;;22.00;15.10;;;;;;;7.65;55.72;99253.85;126149;1293;129714;-61
2024/04/24 18:56:53;;;;;;;25.80;17.00;;;;;;;7.60;56.15;99259.98;125741;1299;115028;-60
2024/04/24 19:00:12;;;;;;;;;;;;;;;7.56;56.45;99260.02;125827;1297;114996;-61
2024/04/24 19:03:26;;;;;;;;;;;;;;;;;;;;;
2024/04/24 19:06:37;;;;;;;21.20;15.90;;;;;;;7.45;56.64;99260.94;126344;1294;114968;-61
2024/04/24 19:10:30;;;;;;;17.80;12.80;;;;;;;7.40;57.15;99260.34;128038;1276;128940;-61
2024/04/24 19:14:08;;;;;;;21.60;12.90;;;;;;;7.32;57.71;99270.89;128313;1274;114947;-62
2024/04/24 19:17:46;;;;;;;20.90;14.80;;;;;;;7.27;58.16;99268.14;129084;1271;114976;-61
2024/04/24 19:21:19;;;;;;;16.80;10.90;;;;;;;7.22;58.30;99268.02;129104;1284;114894;-60
2024/04/24 19:24:42;;;;;;;;;;;;;;;;;;;;;
2024/04/24 19:28:30;;;;;;;;;;;;;;;;;;;;;
2024/04/24 19:32:09;;;;;;;20.70;14.50;;;;;;;7.11;59.11;99261.66;129951;1266;114894;-63
2024/04/24 19:35:56;;;;;;;;;;;;;;;;;;;;;
2024/04/24 19:39:34;;;;;;;;;;;;;;;;;;;;;
2024/04/24 19:43:37;;;;;;;16.80;12.30;;;;;;;7.05;59.47;99268.55;129486;1280;114837;-61
2024/04/24 19:47:18;;;;;;;19.50;13.60;;;;;;;7.00;59.85;99268.45;129458;1282;129911;-61
2024/04/24 19:50:58;;;;;;;;;;;;;;;;;;;;;
2024/04/24 19:54:36;;;;;;;;;;;;;;;;;;;;;
2024/04/24 19:58:24;;;;;;;24.60;14.20;;;;;;;6.94;60.19;99266.09;129884;1275;114960;-60